首页
METAR-TAF:

METAR-TAF

机场 :

Newton Municipal Airport

牛顿, 艾奥瓦州, 美国

纬度: 41-41N, 经度: 093-01W, 海拔: 290米

当前天气观测

该预报发布于11分钟前的18:15 UTC
风速5节,风向多变
温度 31°C
湿度 46%
气压 1008 hPa
能見度: 14.5公里
天空无云

METAR: KTNU 041815Z AUTO VRB05KT 9SM CLR 31/18 A2977 RMK A01

时间: 13:26 (18:26 UTC)


TAF: 丢失

超过4000个机场的气象观测和天气预报(METAR&TAF报告)。

可查询的气象台以黄色和红色小点在地图上表示。

将鼠标移到小点上方,可查看气象台名称。

然后点击查看天气观测和预报。

如需切换地图:点击带黑十字的绿色按钮放大地图;点击带横线的绿色按钮缩小地图;或者点击绿色箭头查看邻近地区的地图。


METAR-TAF: